Flight Track Log - Related Links

Times and Time Zones

All times are in EDT time to prevent confusion due to time zone crossing. See the GJS6221 flight status page for this flight to view local times or setup timezone preferences in your user account.

Time Position Orientation Groundspeed Altitude Reporting Facility
EDT Latitude Longitude Course Direction KTS MPH feet Rate Location/Type
Thu 10:10:19 AM 40.7500 -73.8333 90° East 159 183 1,600  Level New York TRACON
Thu 10:11:13 AM 40.7500 -73.7833 90° East 204 235 3,200 2,300 Climbing New York TRACON
Thu 10:12:19 AM 40.8000 -73.8333 323° Northwest 258 297 6,200 2,667 Climbing New York TRACON
Thu 10:13:19 AM 40.8000 -73.9167 270° West 262 302 8,800 2,650 Climbing New York TRACON
Thu 10:14:19 AM 40.7500 -74.0000 232° Southwest 279 321 11,500 1,650 Climbing New York TRACON
Thu 10:15:19 AM 40.6667 -74.0500 204° Southwest 338 389 12,100 900 Climbing New York TRACON
Thu 10:16:19 AM 40.5667 -74.0833 194° South 374 430 13,300 1,690 Climbing New York TRACON
Thu 10:18:13 AM 40.3803 -74.1386 193° South 377 434 17,000 1,908 Climbing New York Center
Thu 10:19:12 AM 40.2983 -74.1644 194° South 377 434 18,800 1,884 Climbing New York Center
Thu 10:20:14 AM 40.2019 -74.2467 213° Southwest 368 423 20,800 1,872 Climbing New York Center
Thu 10:21:17 AM 40.1008 -74.3439 216° Southwest 376 433 22,700 1,548 Climbing Washington Center
Thu 10:22:18 AM 40.0119 -74.4267 216° Southwest 381 438 24,000 1,068 Climbing Washington Center
Thu 10:23:15 AM 39.9253 -74.5119 217° Southwest 387 445 24,800 966 Climbing Washington Center
Thu 10:24:16 AM 39.8344 -74.6000 217° Southwest 395 455 25,900 590 Climbing Washington Center
Thu 10:25:17 AM 39.7433 -74.6875 216° Southwest 406 467 26,000 49 Climbing Washington Center
Thu 10:26:18 AM 39.6628 -74.7694 218° Southwest 406 467 26,000  Level Washington Center
Thu 10:27:16 AM 39.5717 -74.8539 216° Southwest 406 467 26,000  Level Washington Center
Thu 10:28:16 AM 39.4806 -74.9408 216° Southwest 412 474 26,000  Level Washington Center
Thu 10:29:17 AM 39.3828 -75.0142 210° Southwest 412 474 26,000  Level Washington Center
Thu 10:30:17 AM 39.2728 -75.0689 201° Southwest 412 474 26,000  Level Washington Center
Thu 10:31:17 AM 39.1625 -75.1206 200° South 418 481 26,000  Level Washington Center
Thu 10:32:18 AM 39.0500 -75.1747 201° Southwest 428 493 26,000 -303 Level Washington Center
Thu 10:33:16 AM 38.9397 -75.2286 201° Southwest 433 498 25,400 -1,109 Descending Washington Center
Thu 10:34:17 AM 38.8294 -75.2800 200° South 433 498 23,800 -1,574 Descending Washington Center
Thu 10:35:18 AM 38.7192 -75.3361 202° Southwest 428 493 22,200 -1,513 Descending Washington Center
Thu 10:36:16 AM 38.6150 -75.3844 200° South 423 487 20,800 -1,119 Descending Washington Center
Thu 10:37:16 AM 38.5108 -75.4325 200° South 411 473 20,000 -397 Descending Washington Center
Thu 10:38:17 AM 38.4044 -75.4831 200° South 406 467 20,000  Level Washington Center
Thu 10:39:15 AM 38.2983 -75.5389 202° Southwest 412 474 20,000 3,025 Level Washington Center
Thu 10:40:16 AM 38.1919 -75.5944 202° Southwest 418 481 26,000 -49 Climbing Washington Center
Thu 10:41:17 AM 38.0958 -75.6631 209° Southwest 413 475 19,900 -4,017 Descending Washington Center
Thu 10:42:17 AM 37.9875 -75.7339 207° Southwest 403 464 17,900 -1,765 Descending Washington Center
Thu 10:43:16 AM 37.8936 -75.7917 206° Southwest 395 455 16,400 -1,400 Descending Washington Center
Thu 10:44:17 AM 37.8039 -75.8414 204° Southwest 390 449 15,100 -1,500 Descending Washington Center
Thu 10:44:56 AM 37.7389 -75.8858 208° Southwest 356 410 13,900 -1,900 Descending Washington Center
Thu 10:45:17 AM 37.7097 -75.9067 209° Southwest 377 434 13,200 -1,800 Descending Washington Center
Thu 10:46:16 AM 37.6261 -75.9536 204° Southwest 352 405 11,500 -1,626 Descending Washington Center
Thu 10:47:04 AM 37.5675 -76.0083 217° Southwest 314 361 10,300 -1,600 Descending Washington Center
Thu 10:47:16 AM 37.5572 -76.0242 231° Southwest 334 384 9,900 -273 Descending Washington Center
Thu 10:48:10 AM 37.4964 -76.0656 208° Southwest 288 331 10,000 -857 Climbing Washington Center
Thu 10:49:15 AM 37.4108 -76.0886 192° South 269 310 8,200 -1,714 Descending Washington Center
Thu 10:50:16 AM 37.3358 -76.0881 180° South 272 313 6,400 -1,707 Descending Washington Center
Thu 10:51:11 AM 37.2650 -76.0617 163° South 281 323 4,900 -1,190 Descending Washington Center
Thu 10:52:17 AM 37.1900 -76.0558 176° South 270 311 4,000 -443 Descending Washington Center
Thu 10:53:13 AM 37.1272 -76.0581 182° South 230 265 4,000  Level Washington Center
Thu 10:54:08 AM 37.0689 -76.0606 182° South 225 259 4,000 -365 Level Washington Center
Thu 10:55:08 AM 37.0167 -76.0808 197° South 186 214 3,300 -1,062 Descending Washington Center
Thu 10:56:01 AM 36.9853 -76.1172 223° Southwest 155 178 2,000 -1,000 Descending Washington Center
Thu 10:57:08 AM 36.9539 -76.1428 213° Southwest 121 139 1,300 -661 Descending Washington Center
Thu 10:58:08 AM 36.9244 -76.1714 218° Southwest 129 148 600 -700 Descending Washington Center

Login

Don't have an account? Register now (free) for customized features, flight alerts, and more!